Other Surface Observations
Issued by NWS Missoula, MT

Home | Current Version | Previous Version | Text Only | Print | Product List | Glossary On
Versions: 1 2 3 4 5 6 7 8 9 10 11 12 13 14 15 16 17 18 19 20 21 22 23 24 25 26 27 28 29 30 31 32 33 34 35 36 37 38 39 40 41 42 43 44 45 46 47 48 49 50
000
SXUS55 KMSO 271303
OSOMSO
MONTANA AWOS SUMMARY
NATIONAL WEATHER SERVICE MISSOULA MT
703 AM MDT WED MAY 27 2015

Montana AWOS Reports

LAUREL      |K6S8 271255Z AUTO 00000KT 25SM 11/07 A2998 RMK AO1 T01060072
ROUNDUP     |KRPX 271255Z AUTO 21004KT 40SM 10/08 A2990 RMK AO1 T01000083
MALTA       |KM75 271255Z AUTO 27008KT 15SM 13/10 A2990 RMK AO1 T01330100




USA.gov is the U.S. government's official web portal to all federal, state and local government web resources and services.